sensor_id;sensor_type;location;lat;lon;timestamp;P1;durP1;ratioP1;P2;durP2;ratioP2
72924;SDS011;61070;50.794;7.054;2023-08-31T00:00:23;5.65;;;2.75;;
72924;SDS011;61070;50.794;7.054;2023-08-31T00:01:24;7.07;;;3.10;;
72924;SDS011;61070;50.794;7.054;2023-08-31T00:02:25;5.55;;;2.65;;
72924;SDS011;61070;50.794;7.054;2023-08-31T00:03:25;10.73;;;2.95;;
72924;SDS011;61070;50.794;7.054;2023-08-31T00:04:25;6.28;;;3.08;;
72924;SDS011;61070;50.794;7.054;2023-08-31T00:05:26;10.30;;;2.80;;
72924;SDS011;61070;50.794;7.054;2023-08-31T00:06:30;11.13;;;3.42;;
72924;SDS011;61070;50.794;7.054;2023-08-31T00:07:30;5.25;;;2.80;;
72924;SDS011;61070;50.794;7.054;2023-08-31T00:08:31;7.20;;;3.25;;
72924;SDS011;61070;50.794;7.054;2023-08-31T00:09:32;7.80;;;3.17;;
72924;SDS011;61070;50.794;7.054;2023-08-31T00:10:35;10.13;;;2.80;;
72924;SDS011;61070;50.794;7.054;2023-08-31T00:11:36;6.75;;;2.92;;
72924;SDS011;61070;50.794;7.054;2023-08-31T00:12:37;13.40;;;3.05;;
72924;SDS011;61070;50.794;7.054;2023-08-31T00:13:37;14.90;;;3.50;;
72924;SDS011;61070;50.794;7.054;2023-08-31T00:14:38;8.32;;;3.72;;
72924;SDS011;61070;50.794;7.054;2023-08-31T00:15:39;7.43;;;3.22;;
72924;SDS011;61070;50.794;7.054;2023-08-31T00:16:41;9.27;;;3.58;;
72924;SDS011;61070;50.794;7.054;2023-08-31T00:17:41;7.68;;;3.10;;
72924;SDS011;61070;50.794;7.054;2023-08-31T00:18:42;5.25;;;2.50;;
72924;SDS011;61070;50.794;7.054;2023-08-31T00:19:45;5.60;;;3.17;;
72924;SDS011;61070;50.794;7.054;2023-08-31T00:20:45;7.65;;;3.10;;
72924;SDS011;61070;50.794;7.054;2023-08-31T00:21:45;8.98;;;2.80;;
72924;SDS011;61070;50.794;7.054;2023-08-31T00:22:46;8.82;;;3.28;;
72924;SDS011;61070;50.794;7.054;2023-08-31T00:23:46;8.25;;;2.60;;
72924;SDS011;61070;50.794;7.054;2023-08-31T00:24:46;8.15;;;2.53;;
72924;SDS011;61070;50.794;7.054;2023-08-31T00:25:47;8.07;;;2.40;;
72924;SDS011;61070;50.794;7.054;2023-08-31T00:26:52;8.15;;;2.78;;
72924;SDS011;61070;50.794;7.054;2023-08-31T00:27:53;7.97;;;2.42;;
72924;SDS011;61070;50.794;7.054;2023-08-31T00:28:53;6.35;;;2.55;;
72924;SDS011;61070;50.794;7.054;2023-08-31T00:29:54;9.40;;;2.92;;
72924;SDS011;61070;50.794;7.054;2023-08-31T00:30:55;7.53;;;2.60;;
72924;SDS011;61070;50.794;7.054;2023-08-31T00:31:56;8.52;;;2.78;;
72924;SDS011;61070;50.794;7.054;2023-08-31T00:32:56;7.60;;;2.88;;
72924;SDS011;61070;50.794;7.054;2023-08-31T00:33:59;12.40;;;2.63;;
72924;SDS011;61070;50.794;7.054;2023-08-31T00:35:04;6.88;;;2.42;;
72924;SDS011;61070;50.794;7.054;2023-08-31T00:36:05;4.60;;;2.78;;
72924;SDS011;61070;50.794;7.054;2023-08-31T00:37:05;6.80;;;2.70;;
72924;SDS011;61070;50.794;7.054;2023-08-31T00:38:06;8.80;;;2.92;;
72924;SDS011;61070;50.794;7.054;2023-08-31T00:39:06;6.90;;;2.15;;
72924;SDS011;61070;50.794;7.054;2023-08-31T00:40:08;7.85;;;2.95;;
72924;SDS011;61070;50.794;7.054;2023-08-31T00:41:11;7.68;;;2.90;;
72924;SDS011;61070;50.794;7.054;2023-08-31T00:42:12;7.03;;;2.33;;
72924;SDS011;61070;50.794;7.054;2023-08-31T00:43:14;5.78;;;2.90;;
72924;SDS011;61070;50.794;7.054;2023-08-31T00:44:17;8.38;;;3.47;;
72924;SDS011;61070;50.794;7.054;2023-08-31T00:45:18;7.82;;;2.90;;
72924;SDS011;61070;50.794;7.054;2023-08-31T00:46:19;7.32;;;2.78;;
72924;SDS011;61070;50.794;7.054;2023-08-31T00:47:20;5.07;;;2.10;;
72924;SDS011;61070;50.794;7.054;2023-08-31T00:48:20;6.65;;;2.97;;
72924;SDS011;61070;50.794;7.054;2023-08-31T00:49:20;5.05;;;2.47;;
72924;SDS011;61070;50.794;7.054;2023-08-31T00:50:21;8.00;;;2.72;;
72924;SDS011;61070;50.794;7.054;2023-08-31T00:51:22;5.57;;;2.50;;
72924;SDS011;61070;50.794;7.054;2023-08-31T00:52:22;7.07;;;2.80;;
72924;SDS011;61070;50.794;7.054;2023-08-31T00:53:22;10.60;;;2.50;;
72924;SDS011;61070;50.794;7.054;2023-08-31T00:54:23;5.60;;;2.10;;
72924;SDS011;61070;50.794;7.054;2023-08-31T00:55:24;6.75;;;2.50;;
72924;SDS011;61070;50.794;7.054;2023-08-31T00:56:24;5.43;;;2.47;;
72924;SDS011;61070;50.794;7.054;2023-08-31T00:57:29;6.45;;;2.50;;
72924;SDS011;61070;50.794;7.054;2023-08-31T00:58:30;12.48;;;2.72;;
72924;SDS011;61070;50.794;7.054;2023-08-31T00:59:30;3.30;;;2.22;;
72924;SDS011;61070;50.794;7.054;2023-08-31T01:00:33;3.78;;;2.30;;
72924;SDS011;61070;50.794;7.054;2023-08-31T01:01:51;6.35;;;2.65;;
72924;SDS011;61070;50.794;7.054;2023-08-31T01:03:05;4.38;;;2.40;;
72924;SDS011;61070;50.794;7.054;2023-08-31T01:06:53;6.63;;;2.70;;
72924;SDS011;61070;50.794;7.054;2023-08-31T01:08:07;6.45;;;3.03;;
72924;SDS011;61070;50.794;7.054;2023-08-31T01:09:36;6.18;;;2.30;;
72924;SDS011;61070;50.794;7.054;2023-08-31T01:10:45;5.35;;;3.00;;
72924;SDS011;61070;50.794;7.054;2023-08-31T01:11:57;6.53;;;2.65;;
72924;SDS011;61070;50.794;7.054;2023-08-31T01:13:03;5.72;;;2.35;;
72924;SDS011;61070;50.794;7.054;2023-08-31T01:15:18;6.95;;;2.30;;
72924;SDS011;61070;50.794;7.054;2023-08-31T01:16:19;8.65;;;2.38;;
72924;SDS011;61070;50.794;7.054;2023-08-31T01:17:24;4.13;;;2.25;;
72924;SDS011;61070;50.794;7.054;2023-08-31T01:18:26;5.05;;;2.20;;
72924;SDS011;61070;50.794;7.054;2023-08-31T01:19:50;5.22;;;2.47;;
72924;SDS011;61070;50.794;7.054;2023-08-31T01:20:55;8.90;;;3.60;;
72924;SDS011;61070;50.794;7.054;2023-08-31T01:21:59;10.00;;;3.08;;
72924;SDS011;61070;50.794;7.054;2023-08-31T01:23:08;6.88;;;2.08;;
72924;SDS011;61070;50.794;7.054;2023-08-31T01:24:11;6.32;;;2.58;;
72924;SDS011;61070;50.794;7.054;2023-08-31T01:25:12;4.60;;;2.50;;
72924;SDS011;61070;50.794;7.054;2023-08-31T01:26:13;4.88;;;2.10;;
72924;SDS011;61070;50.794;7.054;2023-08-31T01:27:13;12.38;;;3.35;;
72924;SDS011;61070;50.794;7.054;2023-08-31T01:28:14;9.25;;;2.53;;
72924;SDS011;61070;50.794;7.054;2023-08-31T01:29:15;2.38;;;1.77;;
72924;SDS011;61070;50.794;7.054;2023-08-31T01:30:15;5.45;;;2.40;;
72924;SDS011;61070;50.794;7.054;2023-08-31T01:31:15;5.43;;;2.53;;
72924;SDS011;61070;50.794;7.054;2023-08-31T01:32:16;6.85;;;2.42;;
72924;SDS011;61070;50.794;7.054;2023-08-31T01:33:16;7.85;;;3.28;;
72924;SDS011;61070;50.794;7.054;2023-08-31T01:34:17;6.97;;;2.70;;
72924;SDS011;61070;50.794;7.054;2023-08-31T01:35:17;6.68;;;2.45;;
72924;SDS011;61070;50.794;7.054;2023-08-31T01:38:33;7.78;;;2.47;;
72924;SDS011;61070;50.794;7.054;2023-08-31T01:39:39;6.40;;;2.47;;
72924;SDS011;61070;50.794;7.054;2023-08-31T01:40:55;4.65;;;2.45;;
72924;SDS011;61070;50.794;7.054;2023-08-31T01:42:02;6.82;;;2.45;;
72924;SDS011;61070;50.794;7.054;2023-08-31T01:43:05;5.10;;;2.13;;
72924;SDS011;61070;50.794;7.054;2023-08-31T01:44:08;5.68;;;2.53;;
72924;SDS011;61070;50.794;7.054;2023-08-31T01:45:18;5.68;;;2.45;;
72924;SDS011;61070;50.794;7.054;2023-08-31T01:46:20;5.13;;;2.70;;
72924;SDS011;61070;50.794;7.054;2023-08-31T01:47:21;11.20;;;3.00;;
72924;SDS011;61070;50.794;7.054;2023-08-31T01:48:22;7.10;;;2.70;;
72924;SDS011;61070;50.794;7.054;2023-08-31T01:49:22;5.43;;;2.72;;
72924;SDS011;61070;50.794;7.054;2023-08-31T01:50:22;5.20;;;2.45;;
72924;SDS011;61070;50.794;7.054;2023-08-31T01:51:23;9.75;;;2.85;;
72924;SDS011;61070;50.794;7.054;2023-08-31T01:52:23;6.57;;;2.05;;
72924;SDS011;61070;50.794;7.054;2023-08-31T01:53:23;6.95;;;3.03;;
72924;SDS011;61070;50.794;7.054;2023-08-31T01:54:24;7.35;;;2.47;;
72924;SDS011;61070;50.794;7.054;2023-08-31T01:55:24;6.88;;;2.40;;
72924;SDS011;61070;50.794;7.054;2023-08-31T01:56:24;4.57;;;2.70;;
72924;SDS011;61070;50.794;7.054;2023-08-31T01:57:25;4.07;;;2.42;;
72924;SDS011;61070;50.794;7.054;2023-08-31T01:58:25;6.20;;;2.38;;
72924;SDS011;61070;50.794;7.054;2023-08-31T01:59:25;6.22;;;2.60;;
72924;SDS011;61070;50.794;7.054;2023-08-31T02:00:27;9.43;;;3.05;;
72924;SDS011;61070;50.794;7.054;2023-08-31T02:01:28;10.45;;;2.85;;
72924;SDS011;61070;50.794;7.054;2023-08-31T02:02:29;5.82;;;2.60;;
72924;SDS011;61070;50.794;7.054;2023-08-31T02:03:29;7.18;;;2.70;;
72924;SDS011;61070;50.794;7.054;2023-08-31T02:04:30;5.05;;;2.33;;
72924;SDS011;61070;50.794;7.054;2023-08-31T02:05:30;8.15;;;2.72;;
72924;SDS011;61070;50.794;7.054;2023-08-31T02:06:31;6.93;;;2.40;;
72924;SDS011;61070;50.794;7.054;2023-08-31T02:07:31;4.53;;;2.70;;
72924;SDS011;61070;50.794;7.054;2023-08-31T02:08:32;4.97;;;2.40;;
72924;SDS011;61070;50.794;7.054;2023-08-31T02:09:32;4.40;;;2.50;;
72924;SDS011;61070;50.794;7.054;2023-08-31T02:10:32;6.40;;;3.03;;
72924;SDS011;61070;50.794;7.054;2023-08-31T02:11:33;3.22;;;2.40;;
72924;SDS011;61070;50.794;7.054;2023-08-31T02:12:37;5.70;;;2.40;;
72924;SDS011;61070;50.794;7.054;2023-08-31T02:13:37;6.78;;;2.80;;
72924;SDS011;61070;50.794;7.054;2023-08-31T02:14:38;9.25;;;2.88;;
72924;SDS011;61070;50.794;7.054;2023-08-31T02:15:38;5.97;;;2.88;;
72924;SDS011;61070;50.794;7.054;2023-08-31T02:16:39;8.80;;;2.40;;
72924;SDS011;61070;50.794;7.054;2023-08-31T02:17:39;5.60;;;2.80;;
72924;SDS011;61070;50.794;7.054;2023-08-31T02:18:40;7.65;;;3.03;;
72924;SDS011;61070;50.794;7.054;2023-08-31T02:19:40;5.15;;;2.30;;
72924;SDS011;61070;50.794;7.054;2023-08-31T02:20:40;8.88;;;3.38;;
72924;SDS011;61070;50.794;7.054;2023-08-31T02:21:41;8.73;;;3.03;;
72924;SDS011;61070;50.794;7.054;2023-08-31T02:22:41;5.72;;;3.08;;
72924;SDS011;61070;50.794;7.054;2023-08-31T02:23:41;5.75;;;2.70;;
72924;SDS011;61070;50.794;7.054;2023-08-31T02:24:42;5.80;;;2.90;;
72924;SDS011;61070;50.794;7.054;2023-08-31T02:25:42;8.95;;;3.33;;
72924;SDS011;61070;50.794;7.054;2023-08-31T02:26:42;6.53;;;3.60;;
72924;SDS011;61070;50.794;7.054;2023-08-31T02:27:42;7.55;;;3.03;;
72924;SDS011;61070;50.794;7.054;2023-08-31T02:28:43;6.50;;;2.50;;
72924;SDS011;61070;50.794;7.054;2023-08-31T02:29:43;11.20;;;3.30;;
72924;SDS011;61070;50.794;7.054;2023-08-31T02:30:44;11.15;;;3.30;;
72924;SDS011;61070;50.794;7.054;2023-08-31T02:31:45;9.88;;;2.85;;
72924;SDS011;61070;50.794;7.054;2023-08-31T02:32:45;5.95;;;2.70;;
72924;SDS011;61070;50.794;7.054;2023-08-31T02:33:47;7.72;;;3.10;;
72924;SDS011;61070;50.794;7.054;2023-08-31T02:34:48;8.52;;;2.88;;
72924;SDS011;61070;50.794;7.054;2023-08-31T02:35:49;6.05;;;2.80;;
72924;SDS011;61070;50.794;7.054;2023-08-31T02:36:49;6.65;;;3.17;;
72924;SDS011;61070;50.794;7.054;2023-08-31T02:37:49;6.25;;;3.13;;
72924;SDS011;61070;50.794;7.054;2023-08-31T02:38:50;6.30;;;2.75;;
72924;SDS011;61070;50.794;7.054;2023-08-31T02:39:50;8.02;;;2.92;;
72924;SDS011;61070;50.794;7.054;2023-08-31T02:40:50;7.95;;;2.70;;
72924;SDS011;61070;50.794;7.054;2023-08-31T02:41:51;7.90;;;3.47;;
72924;SDS011;61070;50.794;7.054;2023-08-31T02:42:51;7.45;;;3.20;;
72924;SDS011;61070;50.794;7.054;2023-08-31T02:43:52;9.93;;;3.00;;
72924;SDS011;61070;50.794;7.054;2023-08-31T02:44:52;5.38;;;2.67;;
72924;SDS011;61070;50.794;7.054;2023-08-31T02:46:00;12.38;;;3.60;;
72924;SDS011;61070;50.794;7.054;2023-08-31T02:47:01;7.63;;;3.33;;
72924;SDS011;61070;50.794;7.054;2023-08-31T02:48:02;3.75;;;2.88;;
72924;SDS011;61070;50.794;7.054;2023-08-31T02:49:04;7.40;;;3.08;;
72924;SDS011;61070;50.794;7.054;2023-08-31T02:50:05;6.28;;;2.80;;
72924;SDS011;61070;50.794;7.054;2023-08-31T02:51:06;6.25;;;2.72;;
72924;SDS011;61070;50.794;7.054;2023-08-31T02:52:06;5.18;;;2.75;;
72924;SDS011;61070;50.794;7.054;2023-08-31T02:53:06;9.70;;;3.22;;
72924;SDS011;61070;50.794;7.054;2023-08-31T02:54:06;6.22;;;3.15;;
72924;SDS011;61070;50.794;7.054;2023-08-31T02:55:07;7.35;;;3.22;;
72924;SDS011;61070;50.794;7.054;2023-08-31T02:56:07;4.43;;;2.80;;
72924;SDS011;61070;50.794;7.054;2023-08-31T02:57:07;9.15;;;3.60;;
72924;SDS011;61070;50.794;7.054;2023-08-31T02:58:08;11.55;;;3.88;;
72924;SDS011;61070;50.794;7.054;2023-08-31T02:59:08;4.60;;;2.97;;
72924;SDS011;61070;50.794;7.054;2023-08-31T03:00:08;8.18;;;3.17;;
72924;SDS011;61070;50.794;7.054;2023-08-31T03:01:13;5.40;;;2.95;;
72924;SDS011;61070;50.794;7.054;2023-08-31T03:02:14;8.85;;;3.38;;
72924;SDS011;61070;50.794;7.054;2023-08-31T03:03:18;5.88;;;2.80;;
72924;SDS011;61070;50.794;7.054;2023-08-31T03:04:18;6.03;;;2.90;;
72924;SDS011;61070;50.794;7.054;2023-08-31T03:05:19;6.78;;;3.33;;
72924;SDS011;61070;50.794;7.054;2023-08-31T03:06:21;7.78;;;3.40;;
72924;SDS011;61070;50.794;7.054;2023-08-31T03:07:21;5.80;;;2.88;;
72924;SDS011;61070;50.794;7.054;2023-08-31T03:08:22;4.40;;;3.13;;
72924;SDS011;61070;50.794;7.054;2023-08-31T03:09:22;5.82;;;3.22;;
72924;SDS011;61070;50.794;7.054;2023-08-31T03:10:22;9.82;;;3.42;;
72924;SDS011;61070;50.794;7.054;2023-08-31T03:11:22;4.65;;;3.08;;
72924;SDS011;61070;50.794;7.054;2023-08-31T03:12:23;6.30;;;3.40;;
72924;SDS011;61070;50.794;7.054;2023-08-31T03:13:23;5.18;;;2.63;;
72924;SDS011;61070;50.794;7.054;2023-08-31T03:14:23;3.83;;;3.15;;
72924;SDS011;61070;50.794;7.054;2023-08-31T03:15:24;5.25;;;2.80;;
72924;SDS011;61070;50.794;7.054;2023-08-31T03:16:24;7.68;;;3.08;;
72924;SDS011;61070;50.794;7.054;2023-08-31T03:17:24;5.47;;;3.42;;
72924;SDS011;61070;50.794;7.054;2023-08-31T03:18:25;5.95;;;3.10;;
72924;SDS011;61070;50.794;7.054;2023-08-31T03:19:25;4.50;;;3.38;;
72924;SDS011;61070;50.794;7.054;2023-08-31T03:20:25;6.65;;;3.00;;
72924;SDS011;61070;50.794;7.054;2023-08-31T03:21:25;7.43;;;3.03;;
72924;SDS011;61070;50.794;7.054;2023-08-31T03:22:26;4.47;;;2.92;;
72924;SDS011;61070;50.794;7.054;2023-08-31T03:23:26;5.93;;;2.63;;
72924;SDS011;61070;50.794;7.054;2023-08-31T03:24:28;6.20;;;3.10;;
72924;SDS011;61070;50.794;7.054;2023-08-31T03:25:28;6.53;;;4.20;;
72924;SDS011;61070;50.794;7.054;2023-08-31T03:26:29;5.65;;;2.97;;
72924;SDS011;61070;50.794;7.054;2023-08-31T03:27:30;9.98;;;3.50;;
72924;SDS011;61070;50.794;7.054;2023-08-31T03:28:30;5.55;;;3.22;;
72924;SDS011;61070;50.794;7.054;2023-08-31T03:29:30;5.68;;;3.53;;
72924;SDS011;61070;50.794;7.054;2023-08-31T03:30:32;7.90;;;3.30;;
72924;SDS011;61070;50.794;7.054;2023-08-31T03:31:32;6.30;;;3.55;;
72924;SDS011;61070;50.794;7.054;2023-08-31T03:32:32;9.38;;;3.10;;
72924;SDS011;61070;50.794;7.054;2023-08-31T03:33:32;8.10;;;3.22;;
72924;SDS011;61070;50.794;7.054;2023-08-31T03:34:33;7.05;;;3.35;;
72924;SDS011;61070;50.794;7.054;2023-08-31T03:35:33;6.47;;;3.45;;
72924;SDS011;61070;50.794;7.054;2023-08-31T03:36:33;5.75;;;3.03;;
72924;SDS011;61070;50.794;7.054;2023-08-31T03:37:34;7.53;;;3.92;;
72924;SDS011;61070;50.794;7.054;2023-08-31T03:38:35;5.40;;;3.30;;
72924;SDS011;61070;50.794;7.054;2023-08-31T03:39:38;6.65;;;3.10;;
72924;SDS011;61070;50.794;7.054;2023-08-31T03:40:40;7.60;;;3.55;;
72924;SDS011;61070;50.794;7.054;2023-08-31T03:41:41;7.50;;;3.47;;
72924;SDS011;61070;50.794;7.054;2023-08-31T03:42:41;8.18;;;3.95;;
72924;SDS011;61070;50.794;7.054;2023-08-31T03:43:42;7.35;;;3.78;;
72924;SDS011;61070;50.794;7.054;2023-08-31T03:44:42;7.25;;;3.83;;
72924;SDS011;61070;50.794;7.054;2023-08-31T03:45:42;9.95;;;3.72;;
72924;SDS011;61070;50.794;7.054;2023-08-31T03:46:43;7.78;;;3.25;;
72924;SDS011;61070;50.794;7.054;2023-08-31T03:47:43;10.55;;;3.70;;
72924;SDS011;61070;50.794;7.054;2023-08-31T03:48:44;10.50;;;3.95;;
72924;SDS011;61070;50.794;7.054;2023-08-31T03:49:44;5.95;;;3.10;;
72924;SDS011;61070;50.794;7.054;2023-08-31T03:50:48;5.93;;;3.92;;
72924;SDS011;61070;50.794;7.054;2023-08-31T03:51:49;4.97;;;3.22;;
72924;SDS011;61070;50.794;7.054;2023-08-31T03:52:49;7.20;;;3.50;;
72924;SDS011;61070;50.794;7.054;2023-08-31T03:53:49;6.15;;;3.40;;
72924;SDS011;61070;50.794;7.054;2023-08-31T03:54:50;11.00;;;3.80;;
72924;SDS011;61070;50.794;7.054;2023-08-31T03:55:51;13.20;;;3.22;;
72924;SDS011;61070;50.794;7.054;2023-08-31T03:56:52;5.10;;;3.58;;
72924;SDS011;61070;50.794;7.054;2023-08-31T03:57:52;6.07;;;3.45;;
72924;SDS011;61070;50.794;7.054;2023-08-31T03:58:53;6.63;;;3.70;;
72924;SDS011;61070;50.794;7.054;2023-08-31T03:59:53;7.13;;;3.45;;
72924;SDS011;61070;50.794;7.054;2023-08-31T04:00:53;7.50;;;4.07;;
72924;SDS011;61070;50.794;7.054;2023-08-31T04:01:54;9.13;;;3.60;;
72924;SDS011;61070;50.794;7.054;2023-08-31T04:02:54;9.38;;;3.85;;
72924;SDS011;61070;50.794;7.054;2023-08-31T04:03:54;8.05;;;3.55;;
72924;SDS011;61070;50.794;7.054;2023-08-31T04:04:56;5.70;;;3.72;;
72924;SDS011;61070;50.794;7.054;2023-08-31T04:05:57;5.85;;;3.00;;
72924;SDS011;61070;50.794;7.054;2023-08-31T04:06:58;8.48;;;4.18;;
72924;SDS011;61070;50.794;7.054;2023-08-31T04:07:58;5.93;;;3.50;;
72924;SDS011;61070;50.794;7.054;2023-08-31T04:08:58;6.55;;;3.20;;
72924;SDS011;61070;50.794;7.054;2023-08-31T04:09:59;8.27;;;3.67;;
72924;SDS011;61070;50.794;7.054;2023-08-31T04:10:59;6.47;;;4.05;;
72924;SDS011;61070;50.794;7.054;2023-08-31T04:12:00;5.75;;;3.92;;
72924;SDS011;61070;50.794;7.054;2023-08-31T04:13:00;7.30;;;3.60;;
72924;SDS011;61070;50.794;7.054;2023-08-31T04:14:01;8.20;;;3.67;;
72924;SDS011;61070;50.794;7.054;2023-08-31T04:15:01;6.82;;;3.80;;
72924;SDS011;61070;50.794;7.054;2023-08-31T04:16:04;7.63;;;3.00;;
72924;SDS011;61070;50.794;7.054;2023-08-31T04:17:05;7.03;;;3.42;;
72924;SDS011;61070;50.794;7.054;2023-08-31T04:18:05;7.47;;;3.88;;
72924;SDS011;61070;50.794;7.054;2023-08-31T04:19:06;8.50;;;3.80;;
72924;SDS011;61070;50.794;7.054;2023-08-31T04:20:06;5.22;;;3.25;;
72924;SDS011;61070;50.794;7.054;2023-08-31T04:21:08;9.05;;;3.95;;
72924;SDS011;61070;50.794;7.054;2023-08-31T04:22:08;4.63;;;3.30;;
72924;SDS011;61070;50.794;7.054;2023-08-31T04:23:08;8.32;;;3.65;;
72924;SDS011;61070;50.794;7.054;2023-08-31T04:24:09;6.80;;;3.50;;
72924;SDS011;61070;50.794;7.054;2023-08-31T04:25:09;6.78;;;3.72;;
72924;SDS011;61070;50.794;7.054;2023-08-31T04:26:12;7.20;;;3.85;;
72924;SDS011;61070;50.794;7.054;2023-08-31T04:27:13;9.27;;;3.50;;
72924;SDS011;61070;50.794;7.054;2023-08-31T04:28:13;8.07;;;3.58;;
72924;SDS011;61070;50.794;7.054;2023-08-31T04:29:14;8.70;;;4.25;;
72924;SDS011;61070;50.794;7.054;2023-08-31T04:30:14;6.43;;;3.70;;
72924;SDS011;61070;50.794;7.054;2023-08-31T04:31:15;8.38;;;3.83;;
72924;SDS011;61070;50.794;7.054;2023-08-31T04:32:16;8.05;;;3.97;;
72924;SDS011;61070;50.794;7.054;2023-08-31T04:33:16;7.03;;;3.70;;
72924;SDS011;61070;50.794;7.054;2023-08-31T04:34:17;6.93;;;4.07;;
72924;SDS011;61070;50.794;7.054;2023-08-31T04:35:18;9.52;;;3.70;;
72924;SDS011;61070;50.794;7.054;2023-08-31T04:36:18;4.82;;;3.33;;
72924;SDS011;61070;50.794;7.054;2023-08-31T04:37:19;7.78;;;4.05;;
72924;SDS011;61070;50.794;7.054;2023-08-31T04:38:20;6.18;;;3.45;;
72924;SDS011;61070;50.794;7.054;2023-08-31T04:39:21;10.52;;;3.67;;
72924;SDS011;61070;50.794;7.054;2023-08-31T04:40:22;10.43;;;4.18;;
72924;SDS011;61070;50.794;7.054;2023-08-31T04:41:22;10.80;;;3.70;;
72924;SDS011;61070;50.794;7.054;2023-08-31T04:42:22;7.30;;;3.75;;
72924;SDS011;61070;50.794;7.054;2023-08-31T04:43:22;11.93;;;4.35;;
72924;SDS011;61070;50.794;7.054;2023-08-31T04:44:23;8.38;;;3.92;;
72924;SDS011;61070;50.794;7.054;2023-08-31T04:45:23;7.25;;;3.92;;
72924;SDS011;61070;50.794;7.054;2023-08-31T04:46:23;5.47;;;3.00;;
72924;SDS011;61070;50.794;7.054;2023-08-31T04:47:24;13.57;;;4.45;;
72924;SDS011;61070;50.794;7.054;2023-08-31T04:48:24;5.40;;;3.75;;
72924;SDS011;61070;50.794;7.054;2023-08-31T04:49:24;4.68;;;3.60;;
72924;SDS011;61070;50.794;7.054;2023-08-31T04:50:25;7.53;;;4.18;;
72924;SDS011;61070;50.794;7.054;2023-08-31T04:51:29;7.05;;;4.05;;
72924;SDS011;61070;50.794;7.054;2023-08-31T04:52:32;6.70;;;3.75;;
72924;SDS011;61070;50.794;7.054;2023-08-31T04:53:32;7.80;;;4.13;;
72924;SDS011;61070;50.794;7.054;2023-08-31T04:54:33;9.75;;;4.10;;
72924;SDS011;61070;50.794;7.054;2023-08-31T04:55:33;12.18;;;4.90;;
72924;SDS011;61070;50.794;7.054;2023-08-31T04:56:34;8.43;;;4.18;;
72924;SDS011;61070;50.794;7.054;2023-08-31T04:57:34;12.13;;;3.85;;
72924;SDS011;61070;50.794;7.054;2023-08-31T04:58:35;7.28;;;3.80;;
72924;SDS011;61070;50.794;7.054;2023-08-31T04:59:35;6.70;;;3.65;;
72924;SDS011;61070;50.794;7.054;2023-08-31T05:00:35;8.20;;;4.05;;
72924;SDS011;61070;50.794;7.054;2023-08-31T05:01:36;9.60;;;4.03;;
72924;SDS011;61070;50.794;7.054;2023-08-31T05:02:36;7.93;;;3.85;;
72924;SDS011;61070;50.794;7.054;2023-08-31T05:03:36;13.00;;;4.68;;
72924;SDS011;61070;50.794;7.054;2023-08-31T05:04:36;6.70;;;3.38;;
72924;SDS011;61070;50.794;7.054;2023-08-31T05:05:37;10.68;;;3.88;;
72924;SDS011;61070;50.794;7.054;2023-08-31T05:06:37;9.00;;;4.05;;
72924;SDS011;61070;50.794;7.054;2023-08-31T05:07:37;4.68;;;3.60;;
72924;SDS011;61070;50.794;7.054;2023-08-31T05:08:38;8.73;;;3.90;;
72924;SDS011;61070;50.794;7.054;2023-08-31T05:09:38;8.23;;;3.90;;
72924;SDS011;61070;50.794;7.054;2023-08-31T05:10:38;11.45;;;3.80;;
72924;SDS011;61070;50.794;7.054;2023-08-31T05:11:39;5.95;;;4.22;;
72924;SDS011;61070;50.794;7.054;2023-08-31T05:12:39;8.60;;;3.80;;
72924;SDS011;61070;50.794;7.054;2023-08-31T05:13:40;22.02;;;4.55;;
72924;SDS011;61070;50.794;7.054;2023-08-31T05:14:42;8.13;;;4.22;;
72924;SDS011;61070;50.794;7.054;2023-08-31T05:15:42;10.10;;;3.72;;
72924;SDS011;61070;50.794;7.054;2023-08-31T05:16:42;9.43;;;3.80;;
72924;SDS011;61070;50.794;7.054;2023-08-31T05:17:43;5.95;;;3.72;;
72924;SDS011;61070;50.794;7.054;2023-08-31T05:18:43;7.75;;;3.40;;
72924;SDS011;61070;50.794;7.054;2023-08-31T05:19:43;11.48;;;4.50;;
72924;SDS011;61070;50.794;7.054;2023-08-31T05:20:44;9.32;;;3.75;;
72924;SDS011;61070;50.794;7.054;2023-08-31T05:21:45;5.18;;;3.60;;
72924;SDS011;61070;50.794;7.054;2023-08-31T05:22:46;5.25;;;3.55;;
72924;SDS011;61070;50.794;7.054;2023-08-31T05:23:46;7.40;;;4.05;;
72924;SDS011;61070;50.794;7.054;2023-08-31T05:24:47;11.10;;;3.90;;
72924;SDS011;61070;50.794;7.054;2023-08-31T05:25:47;6.35;;;3.58;;
72924;SDS011;61070;50.794;7.054;2023-08-31T05:26:48;10.95;;;3.72;;
72924;SDS011;61070;50.794;7.054;2023-08-31T05:27:49;5.53;;;3.63;;
72924;SDS011;61070;50.794;7.054;2023-08-31T05:28:49;5.72;;;3.78;;
72924;SDS011;61070;50.794;7.054;2023-08-31T05:29:49;12.65;;;4.45;;
72924;SDS011;61070;50.794;7.054;2023-08-31T05:30:53;9.80;;;4.28;;
72924;SDS011;61070;50.794;7.054;2023-08-31T05:31:55;5.65;;;4.05;;
72924;SDS011;61070;50.794;7.054;2023-08-31T05:32:55;8.32;;;4.10;;
72924;SDS011;61070;50.794;7.054;2023-08-31T05:33:55;11.10;;;3.55;;
72924;SDS011;61070;50.794;7.054;2023-08-31T05:34:56;9.15;;;3.30;;
72924;SDS011;61070;50.794;7.054;2023-08-31T05:35:56;8.18;;;3.95;;
72924;SDS011;61070;50.794;7.054;2023-08-31T05:36:56;9.57;;;3.80;;
72924;SDS011;61070;50.794;7.054;2023-08-31T05:37:57;7.90;;;3.45;;
72924;SDS011;61070;50.794;7.054;2023-08-31T05:38:57;6.35;;;3.85;;
72924;SDS011;61070;50.794;7.054;2023-08-31T05:39:57;6.25;;;3.20;;
72924;SDS011;61070;50.794;7.054;2023-08-31T05:41:04;5.28;;;3.35;;
72924;SDS011;61070;50.794;7.054;2023-08-31T05:42:09;8.60;;;3.55;;
72924;SDS011;61070;50.794;7.054;2023-08-31T05:43:09;8.88;;;4.20;;
72924;SDS011;61070;50.794;7.054;2023-08-31T05:44:10;6.97;;;3.03;;
72924;SDS011;61070;50.794;7.054;2023-08-31T05:45:10;10.25;;;3.70;;
72924;SDS011;61070;50.794;7.054;2023-08-31T05:46:10;6.53;;;3.50;;
72924;SDS011;61070;50.794;7.054;2023-08-31T05:47:11;5.85;;;3.20;;
72924;SDS011;61070;50.794;7.054;2023-08-31T05:48:11;8.32;;;3.60;;
72924;SDS011;61070;50.794;7.054;2023-08-31T05:49:11;9.43;;;3.67;;
72924;SDS011;61070;50.794;7.054;2023-08-31T05:50:11;9.73;;;3.95;;
72924;SDS011;61070;50.794;7.054;2023-08-31T05:51:12;10.30;;;3.80;;
72924;SDS011;61070;50.794;7.054;2023-08-31T05:52:12;7.25;;;3.50;;
72924;SDS011;61070;50.794;7.054;2023-08-31T05:53:13;8.95;;;3.30;;
72924;SDS011;61070;50.794;7.054;2023-08-31T05:54:13;5.40;;;3.00;;
72924;SDS011;61070;50.794;7.054;2023-08-31T05:55:13;6.57;;;3.38;;
72924;SDS011;61070;50.794;7.054;2023-08-31T05:56:14;5.68;;;3.35;;
72924;SDS011;61070;50.794;7.054;2023-08-31T05:57:18;7.75;;;3.78;;
72924;SDS011;61070;50.794;7.054;2023-08-31T05:58:19;10.02;;;3.58;;
72924;SDS011;61070;50.794;7.054;2023-08-31T05:59:19;7.50;;;3.47;;
72924;SDS011;61070;50.794;7.054;2023-08-31T06:00:21;5.40;;;3.13;;
72924;SDS011;61070;50.794;7.054;2023-08-31T06:01:21;6.28;;;3.30;;
72924;SDS011;61070;50.794;7.054;2023-08-31T06:02:24;7.03;;;2.72;;
72924;SDS011;61070;50.794;7.054;2023-08-31T06:03:24;5.57;;;2.92;;
72924;SDS011;61070;50.794;7.054;2023-08-31T06:04:25;6.65;;;3.05;;
72924;SDS011;61070;50.794;7.054;2023-08-31T06:05:25;4.93;;;3.10;;
72924;SDS011;61070;50.794;7.054;2023-08-31T06:06:27;8.68;;;3.10;;
72924;SDS011;61070;50.794;7.054;2023-08-31T06:07:27;5.07;;;2.80;;
72924;SDS011;61070;50.794;7.054;2023-08-31T06:08:29;6.50;;;3.40;;
72924;SDS011;61070;50.794;7.054;2023-08-31T06:09:30;6.10;;;2.80;;
72924;SDS011;61070;50.794;7.054;2023-08-31T06:10:30;7.88;;;3.20;;
72924;SDS011;61070;50.794;7.054;2023-08-31T06:11:30;5.60;;;2.75;;
72924;SDS011;61070;50.794;7.054;2023-08-31T06:12:31;7.60;;;3.13;;
72924;SDS011;61070;50.794;7.054;2023-08-31T06:13:31;7.82;;;3.25;;
72924;SDS011;61070;50.794;7.054;2023-08-31T06:14:31;9.20;;;3.05;;